sensor_id;sensor_type;location;lat;lon;timestamp;P1;durP1;ratioP1;P2;durP2;ratioP2
8058;SDS011;4072;42.668;23.396;2022-09-09T00:02:27;8.33;;;7.53;;
8058;SDS011;4072;42.668;23.396;2022-09-09T00:04:58;7.70;;;6.90;;
8058;SDS011;4072;42.668;23.396;2022-09-09T00:07:33;8.37;;;7.67;;
8058;SDS011;4072;42.668;23.396;2022-09-09T00:10:15;7.73;;;7.07;;
8058;SDS011;4072;42.668;23.396;2022-09-09T00:12:48;10.33;;;7.23;;
8058;SDS011;4072;42.668;23.396;2022-09-09T00:15:20;8.03;;;7.23;;
8058;SDS011;4072;42.668;23.396;2022-09-09T00:17:51;8.30;;;7.60;;
8058;SDS011;4072;42.668;23.396;2022-09-09T00:20:21;11.93;;;6.80;;
8058;SDS011;4072;42.668;23.396;2022-09-09T00:22:54;8.63;;;7.13;;
8058;SDS011;4072;42.668;23.396;2022-09-09T00:25:27;10.07;;;7.73;;
8058;SDS011;4072;42.668;23.396;2022-09-09T00:27:56;8.20;;;7.40;;
8058;SDS011;4072;42.668;23.396;2022-09-09T00:30:24;8.53;;;6.83;;
8058;SDS011;4072;42.668;23.396;2022-09-09T00:32:53;8.63;;;7.73;;
8058;SDS011;4072;42.668;23.396;2022-09-09T00:35:25;7.70;;;7.00;;
8058;SDS011;4072;42.668;23.396;2022-09-09T00:37:56;7.37;;;6.77;;
8058;SDS011;4072;42.668;23.396;2022-09-09T00:40:27;8.00;;;7.13;;
8058;SDS011;4072;42.668;23.396;2022-09-09T00:43:07;9.27;;;7.30;;
8058;SDS011;4072;42.668;23.396;2022-09-09T00:45:50;8.43;;;7.63;;
8058;SDS011;4072;42.668;23.396;2022-09-09T00:48:19;8.40;;;7.53;;
8058;SDS011;4072;42.668;23.396;2022-09-09T00:50:49;8.53;;;7.73;;
8058;SDS011;4072;42.668;23.396;2022-09-09T00:56:04;9.43;;;8.17;;
8058;SDS011;4072;42.668;23.396;2022-09-09T00:58:34;14.63;;;8.03;;
8058;SDS011;4072;42.668;23.396;2022-09-09T01:01:03;9.40;;;7.67;;
8058;SDS011;4072;42.668;23.396;2022-09-09T01:03:34;10.27;;;7.60;;
8058;SDS011;4072;42.668;23.396;2022-09-09T01:06:12;8.77;;;7.90;;
8058;SDS011;4072;42.668;23.396;2022-09-09T01:08:54;9.60;;;7.83;;
8058;SDS011;4072;42.668;23.396;2022-09-09T01:11:26;10.80;;;8.10;;
8058;SDS011;4072;42.668;23.396;2022-09-09T01:13:56;9.20;;;8.30;;
8058;SDS011;4072;42.668;23.396;2022-09-09T01:16:26;8.87;;;7.97;;
8058;SDS011;4072;42.668;23.396;2022-09-09T01:18:56;10.93;;;8.03;;
8058;SDS011;4072;42.668;23.396;2022-09-09T01:21:26;9.40;;;7.80;;
8058;SDS011;4072;42.668;23.396;2022-09-09T01:24:01;8.57;;;7.70;;
8058;SDS011;4072;42.668;23.396;2022-09-09T01:26:35;9.80;;;8.00;;
8058;SDS011;4072;42.668;23.396;2022-09-09T01:29:07;10.57;;;7.97;;
8058;SDS011;4072;42.668;23.396;2022-09-09T01:31:36;12.83;;;7.70;;
8058;SDS011;4072;42.668;23.396;2022-09-09T01:34:07;9.63;;;8.83;;
8058;SDS011;4072;42.668;23.396;2022-09-09T01:36:37;9.60;;;7.80;;
8058;SDS011;4072;42.668;23.396;2022-09-09T01:39:07;11.67;;;8.50;;
8058;SDS011;4072;42.668;23.396;2022-09-09T01:41:38;10.03;;;8.20;;
8058;SDS011;4072;42.668;23.396;2022-09-09T01:44:06;11.13;;;8.07;;
8058;SDS011;4072;42.668;23.396;2022-09-09T01:46:35;9.57;;;8.70;;
8058;SDS011;4072;42.668;23.396;2022-09-09T01:49:03;9.50;;;8.70;;
8058;SDS011;4072;42.668;23.396;2022-09-09T01:51:33;11.80;;;8.43;;
8058;SDS011;4072;42.668;23.396;2022-09-09T01:54:03;8.87;;;8.17;;
8058;SDS011;4072;42.668;23.396;2022-09-09T01:56:35;9.63;;;8.83;;
8058;SDS011;4072;42.668;23.396;2022-09-09T01:59:07;8.67;;;7.87;;
8058;SDS011;4072;42.668;23.396;2022-09-09T02:01:41;9.50;;;8.60;;
8058;SDS011;4072;42.668;23.396;2022-09-09T02:04:15;9.20;;;8.40;;
8058;SDS011;4072;42.668;23.396;2022-09-09T02:06:45;11.13;;;9.27;;
8058;SDS011;4072;42.668;23.396;2022-09-09T02:09:14;9.20;;;8.30;;
8058;SDS011;4072;42.668;23.396;2022-09-09T02:11:44;10.57;;;9.47;;
8058;SDS011;4072;42.668;23.396;2022-09-09T02:14:16;10.27;;;8.93;;
8058;SDS011;4072;42.668;23.396;2022-09-09T02:16:47;9.23;;;8.33;;
8058;SDS011;4072;42.668;23.396;2022-09-09T02:19:18;9.27;;;8.47;;
8058;SDS011;4072;42.668;23.396;2022-09-09T02:21:50;10.63;;;8.73;;
8058;SDS011;4072;42.668;23.396;2022-09-09T02:24:19;10.53;;;9.23;;
8058;SDS011;4072;42.668;23.396;2022-09-09T02:26:47;9.33;;;8.43;;
8058;SDS011;4072;42.668;23.396;2022-09-09T02:29:20;9.87;;;8.80;;
8058;SDS011;4072;42.668;23.396;2022-09-09T02:31:50;9.27;;;8.17;;
8058;SDS011;4072;42.668;23.396;2022-09-09T02:34:19;10.40;;;9.37;;
8058;SDS011;4072;42.668;23.396;2022-09-09T02:36:48;8.60;;;7.63;;
8058;SDS011;4072;42.668;23.396;2022-09-09T02:39:17;9.70;;;8.80;;
8058;SDS011;4072;42.668;23.396;2022-09-09T02:41:45;9.60;;;8.33;;
8058;SDS011;4072;42.668;23.396;2022-09-09T02:44:14;9.40;;;8.57;;
8058;SDS011;4072;42.668;23.396;2022-09-09T02:49:31;9.37;;;8.47;;
8058;SDS011;4072;42.668;23.396;2022-09-09T02:52:04;9.90;;;8.90;;
8058;SDS011;4072;42.668;23.396;2022-09-09T02:54:33;10.00;;;9.10;;
8058;SDS011;4072;42.668;23.396;2022-09-09T02:57:12;10.27;;;9.27;;
8058;SDS011;4072;42.668;23.396;2022-09-09T02:59:40;12.70;;;8.97;;
8058;SDS011;4072;42.668;23.396;2022-09-09T03:02:08;9.67;;;8.60;;
8058;SDS011;4072;42.668;23.396;2022-09-09T03:04:38;8.90;;;8.10;;
8058;SDS011;4072;42.668;23.396;2022-09-09T03:07:33;8.10;;;7.40;;
8058;SDS011;4072;42.668;23.396;2022-09-09T03:10:01;9.30;;;8.07;;
8058;SDS011;4072;42.668;23.396;2022-09-09T03:12:30;8.47;;;7.67;;
8058;SDS011;4072;42.668;23.396;2022-09-09T03:15:00;9.00;;;8.20;;
8058;SDS011;4072;42.668;23.396;2022-09-09T03:17:30;8.77;;;7.87;;
8058;SDS011;4072;42.668;23.396;2022-09-09T03:20:00;8.83;;;8.03;;
8058;SDS011;4072;42.668;23.396;2022-09-09T03:22:28;9.77;;;8.67;;
8058;SDS011;4072;42.668;23.396;2022-09-09T03:24:56;9.63;;;8.70;;
8058;SDS011;4072;42.668;23.396;2022-09-09T03:27:24;10.10;;;9.30;;
8058;SDS011;4072;42.668;23.396;2022-09-09T03:29:51;10.77;;;8.93;;
8058;SDS011;4072;42.668;23.396;2022-09-09T03:32:20;12.10;;;10.90;;
8058;SDS011;4072;42.668;23.396;2022-09-09T03:34:48;9.47;;;8.60;;
8058;SDS011;4072;42.668;23.396;2022-09-09T03:37:19;10.43;;;9.27;;
8058;SDS011;4072;42.668;23.396;2022-09-09T03:39:47;9.20;;;8.07;;
8058;SDS011;4072;42.668;23.396;2022-09-09T03:42:15;9.50;;;8.60;;
8058;SDS011;4072;42.668;23.396;2022-09-09T03:44:45;10.63;;;9.53;;
8058;SDS011;4072;42.668;23.396;2022-09-09T03:47:16;11.93;;;9.47;;
8058;SDS011;4072;42.668;23.396;2022-09-09T03:49:48;10.30;;;9.40;;
8058;SDS011;4072;42.668;23.396;2022-09-09T03:52:16;11.00;;;9.90;;
8058;SDS011;4072;42.668;23.396;2022-09-09T03:54:50;16.53;;;9.43;;
8058;SDS011;4072;42.668;23.396;2022-09-09T03:57:20;10.77;;;9.70;;
8058;SDS011;4072;42.668;23.396;2022-09-09T03:59:48;14.60;;;9.80;;
8058;SDS011;4072;42.668;23.396;2022-09-09T04:02:16;10.90;;;9.83;;
8058;SDS011;4072;42.668;23.396;2022-09-09T04:04:44;12.50;;;8.73;;
8058;SDS011;4072;42.668;23.396;2022-09-09T04:07:12;11.37;;;10.37;;
8058;SDS011;4072;42.668;23.396;2022-09-09T04:09:40;13.73;;;10.53;;
8058;SDS011;4072;42.668;23.396;2022-09-09T04:12:10;11.40;;;9.80;;
8058;SDS011;4072;42.668;23.396;2022-09-09T04:14:40;10.60;;;9.60;;
8058;SDS011;4072;42.668;23.396;2022-09-09T04:17:08;13.07;;;10.40;;
8058;SDS011;4072;42.668;23.396;2022-09-09T04:19:36;12.27;;;10.63;;
8058;SDS011;4072;42.668;23.396;2022-09-09T04:22:04;14.83;;;10.80;;
8058;SDS011;4072;42.668;23.396;2022-09-09T04:24:32;16.03;;;10.63;;
8058;SDS011;4072;42.668;23.396;2022-09-09T04:27:00;17.40;;;10.10;;
8058;SDS011;4072;42.668;23.396;2022-09-09T04:29:30;12.27;;;10.10;;
8058;SDS011;4072;42.668;23.396;2022-09-09T04:31:57;13.83;;;10.53;;
8058;SDS011;4072;42.668;23.396;2022-09-09T04:34:26;13.03;;;10.67;;
8058;SDS011;4072;42.668;23.396;2022-09-09T04:36:55;14.30;;;10.27;;
8058;SDS011;4072;42.668;23.396;2022-09-09T04:39:23;11.00;;;10.03;;
8058;SDS011;4072;42.668;23.396;2022-09-09T04:41:51;14.83;;;9.33;;
8058;SDS011;4072;42.668;23.396;2022-09-09T04:44:19;10.43;;;9.53;;
8058;SDS011;4072;42.668;23.396;2022-09-09T04:46:48;11.63;;;10.37;;
8058;SDS011;4072;42.668;23.396;2022-09-09T04:49:16;18.10;;;11.00;;
8058;SDS011;4072;42.668;23.396;2022-09-09T04:51:44;11.40;;;10.20;;
8058;SDS011;4072;42.668;23.396;2022-09-09T04:54:13;12.93;;;10.60;;
8058;SDS011;4072;42.668;23.396;2022-09-09T04:56:41;11.43;;;10.03;;
8058;SDS011;4072;42.668;23.396;2022-09-09T04:59:09;14.37;;;9.50;;
8058;SDS011;4072;42.668;23.396;2022-09-09T05:01:40;12.77;;;8.80;;
8058;SDS011;4072;42.668;23.396;2022-09-09T05:04:11;12.67;;;9.97;;
8058;SDS011;4072;42.668;23.396;2022-09-09T05:06:41;12.10;;;10.33;;
8058;SDS011;4072;42.668;23.396;2022-09-09T05:09:09;14.07;;;9.37;;
8058;SDS011;4072;42.668;23.396;2022-09-09T05:11:38;10.60;;;9.67;;
8058;SDS011;4072;42.668;23.396;2022-09-09T05:14:07;12.60;;;8.70;;
8058;SDS011;4072;42.668;23.396;2022-09-09T05:16:35;12.93;;;9.33;;
8058;SDS011;4072;42.668;23.396;2022-09-09T05:19:03;11.27;;;8.97;;
8058;SDS011;4072;42.668;23.396;2022-09-09T05:21:34;10.07;;;9.07;;
8058;SDS011;4072;42.668;23.396;2022-09-09T05:24:02;12.93;;;8.67;;
8058;SDS011;4072;42.668;23.396;2022-09-09T05:26:30;9.33;;;8.43;;
8058;SDS011;4072;42.668;23.396;2022-09-09T05:28:58;10.00;;;9.10;;
8058;SDS011;4072;42.668;23.396;2022-09-09T05:31:29;11.93;;;8.27;;
8058;SDS011;4072;42.668;23.396;2022-09-09T05:33:57;10.50;;;8.53;;
8058;SDS011;4072;42.668;23.396;2022-09-09T05:36:26;9.63;;;8.37;;
8058;SDS011;4072;42.668;23.396;2022-09-09T05:38:56;11.20;;;9.07;;
8058;SDS011;4072;42.668;23.396;2022-09-09T05:41:24;9.83;;;8.87;;
8058;SDS011;4072;42.668;23.396;2022-09-09T05:43:52;9.47;;;8.33;;
8058;SDS011;4072;42.668;23.396;2022-09-09T05:46:20;10.20;;;8.70;;
8058;SDS011;4072;42.668;23.396;2022-09-09T05:48:51;7.63;;;6.83;;
8058;SDS011;4072;42.668;23.396;2022-09-09T05:51:20;10.23;;;9.10;;
8058;SDS011;4072;42.668;23.396;2022-09-09T05:53:49;11.97;;;9.23;;
8058;SDS011;4072;42.668;23.396;2022-09-09T05:56:19;12.53;;;8.93;;
8058;SDS011;4072;42.668;23.396;2022-09-09T05:58:48;8.53;;;7.60;;
8058;SDS011;4072;42.668;23.396;2022-09-09T06:01:17;9.40;;;8.40;;
8058;SDS011;4072;42.668;23.396;2022-09-09T06:03:46;12.40;;;8.10;;
8058;SDS011;4072;42.668;23.396;2022-09-09T06:06:15;10.50;;;6.20;;
8058;SDS011;4072;42.668;23.396;2022-09-09T06:08:44;6.40;;;5.70;;
8058;SDS011;4072;42.668;23.396;2022-09-09T06:11:13;7.80;;;6.53;;
8058;SDS011;4072;42.668;23.396;2022-09-09T06:13:43;7.73;;;6.37;;
8058;SDS011;4072;42.668;23.396;2022-09-09T06:16:13;17.70;;;9.33;;
8058;SDS011;4072;42.668;23.396;2022-09-09T06:18:42;13.03;;;9.47;;
8058;SDS011;4072;42.668;23.396;2022-09-09T06:21:20;6.40;;;5.60;;
8058;SDS011;4072;42.668;23.396;2022-09-09T06:23:48;11.90;;;10.10;;
8058;SDS011;4072;42.668;23.396;2022-09-09T06:26:24;12.43;;;10.30;;
8058;SDS011;4072;42.668;23.396;2022-09-09T06:28:55;7.93;;;7.13;;
8058;SDS011;4072;42.668;23.396;2022-09-09T06:31:24;7.37;;;6.30;;
8058;SDS011;4072;42.668;23.396;2022-09-09T06:33:55;9.33;;;6.20;;
8058;SDS011;4072;42.668;23.396;2022-09-09T06:36:24;9.27;;;6.77;;
8058;SDS011;4072;42.668;23.396;2022-09-09T06:38:52;5.87;;;5.27;;
8058;SDS011;4072;42.668;23.396;2022-09-09T06:41:21;6.23;;;5.43;;
8058;SDS011;4072;42.668;23.396;2022-09-09T06:43:50;7.37;;;6.37;;
8058;SDS011;4072;42.668;23.396;2022-09-09T06:46:20;7.63;;;5.97;;
8058;SDS011;4072;42.668;23.396;2022-09-09T06:48:49;8.47;;;5.70;;
8058;SDS011;4072;42.668;23.396;2022-09-09T06:51:17;8.33;;;5.87;;
8058;SDS011;4072;42.668;23.396;2022-09-09T06:53:49;10.63;;;5.30;;
8058;SDS011;4072;42.668;23.396;2022-09-09T06:56:20;12.27;;;6.30;;
8058;SDS011;4072;42.668;23.396;2022-09-09T06:58:49;6.43;;;5.00;;
8058;SDS011;4072;42.668;23.396;2022-09-09T07:01:21;7.47;;;5.20;;
8058;SDS011;4072;42.668;23.396;2022-09-09T07:03:50;5.87;;;5.30;;
8058;SDS011;4072;42.668;23.396;2022-09-09T07:06:19;7.68;;;4.97;;
8058;SDS011;4072;42.668;23.396;2022-09-09T07:08:50;7.82;;;4.70;;
8058;SDS011;4072;42.668;23.396;2022-09-09T07:11:22;5.65;;;5.10;;
8058;SDS011;4072;42.668;23.396;2022-09-09T07:13:52;5.95;;;5.35;;
8058;SDS011;4072;42.668;23.396;2022-09-09T07:16:22;7.13;;;5.28;;
8058;SDS011;4072;42.668;23.396;2022-09-09T07:18:51;7.85;;;5.53;;
8058;SDS011;4072;42.668;23.396;2022-09-09T07:21:23;4.70;;;4.30;;
8058;SDS011;4072;42.668;23.396;2022-09-09T07:23:52;8.55;;;4.78;;
8058;SDS011;4072;42.668;23.396;2022-09-09T07:26:21;8.18;;;4.88;;
8058;SDS011;4072;42.668;23.396;2022-09-09T07:28:49;5.10;;;4.70;;
8058;SDS011;4072;42.668;23.396;2022-09-09T07:31:17;6.35;;;4.82;;
8058;SDS011;4072;42.668;23.396;2022-09-09T07:33:48;6.80;;;4.93;;
8058;SDS011;4072;42.668;23.396;2022-09-09T07:36:17;5.43;;;4.68;;
8058;SDS011;4072;42.668;23.396;2022-09-09T07:38:45;6.22;;;4.90;;
8058;SDS011;4072;42.668;23.396;2022-09-09T07:41:15;6.82;;;5.53;;
8058;SDS011;4072;42.668;23.396;2022-09-09T07:43:44;7.07;;;5.32;;
8058;SDS011;4072;42.668;23.396;2022-09-09T07:46:14;6.57;;;5.07;;
8058;SDS011;4072;42.668;23.396;2022-09-09T07:48:43;7.47;;;5.10;;
8058;SDS011;4072;42.668;23.396;2022-09-09T07:51:14;8.73;;;6.30;;
8058;SDS011;4072;42.668;23.396;2022-09-09T07:53:43;5.18;;;4.60;;
8058;SDS011;4072;42.668;23.396;2022-09-09T07:56:13;6.05;;;4.72;;
8058;SDS011;4072;42.668;23.396;2022-09-09T07:58:44;6.28;;;5.40;;
8058;SDS011;4072;42.668;23.396;2022-09-09T08:01:13;5.75;;;5.20;;
8058;SDS011;4072;42.668;23.396;2022-09-09T08:03:42;6.22;;;5.38;;
8058;SDS011;4072;42.668;23.396;2022-09-09T08:06:10;8.98;;;4.82;;
8058;SDS011;4072;42.668;23.396;2022-09-09T08:08:40;5.63;;;5.00;;
8058;SDS011;4072;42.668;23.396;2022-09-09T08:11:10;6.38;;;5.28;;
8058;SDS011;4072;42.668;23.396;2022-09-09T08:13:39;6.90;;;5.10;;
8058;SDS011;4072;42.668;23.396;2022-09-09T08:16:08;6.97;;;5.22;;
8058;SDS011;4072;42.668;23.396;2022-09-09T08:18:37;8.02;;;5.38;;
8058;SDS011;4072;42.668;23.396;2022-09-09T08:21:06;4.93;;;4.40;;
8058;SDS011;4072;42.668;23.396;2022-09-09T08:23:35;7.13;;;5.47;;
8058;SDS011;4072;42.668;23.396;2022-09-09T08:26:05;7.35;;;6.07;;
8058;SDS011;4072;42.668;23.396;2022-09-09T08:28:33;6.72;;;5.20;;
8058;SDS011;4072;42.668;23.396;2022-09-09T08:31:07;9.80;;;5.88;;
8058;SDS011;4072;42.668;23.396;2022-09-09T08:33:37;6.93;;;5.40;;
8058;SDS011;4072;42.668;23.396;2022-09-09T08:36:06;9.90;;;5.32;;
8058;SDS011;4072;42.668;23.396;2022-09-09T08:38:35;11.27;;;5.68;;
8058;SDS011;4072;42.668;23.396;2022-09-09T08:43:49;6.97;;;5.57;;
8058;SDS011;4072;42.668;23.396;2022-09-09T08:46:19;7.60;;;5.65;;
8058;SDS011;4072;42.668;23.396;2022-09-09T08:48:52;6.82;;;5.47;;
8058;SDS011;4072;42.668;23.396;2022-09-09T08:51:24;6.70;;;4.90;;
8058;SDS011;4072;42.668;23.396;2022-09-09T08:53:53;8.15;;;5.85;;
8058;SDS011;4072;42.668;23.396;2022-09-09T08:56:25;7.80;;;5.90;;
8058;SDS011;4072;42.668;23.396;2022-09-09T08:58:56;5.45;;;5.05;;
8058;SDS011;4072;42.668;23.396;2022-09-09T09:01:28;6.53;;;5.13;;
8058;SDS011;4072;42.668;23.396;2022-09-09T09:03:59;8.95;;;6.05;;
8058;SDS011;4072;42.668;23.396;2022-09-09T09:06:34;8.43;;;5.50;;
8058;SDS011;4072;42.668;23.396;2022-09-09T09:09:05;6.22;;;5.40;;
8058;SDS011;4072;42.668;23.396;2022-09-09T09:11:34;7.07;;;5.25;;
8058;SDS011;4072;42.668;23.396;2022-09-09T09:14:07;9.65;;;5.65;;
8058;SDS011;4072;42.668;23.396;2022-09-09T09:16:38;8.07;;;5.53;;
8058;SDS011;4072;42.668;23.396;2022-09-09T09:19:07;7.70;;;5.05;;
8058;SDS011;4072;42.668;23.396;2022-09-09T09:21:37;13.02;;;5.22;;
8058;SDS011;4072;42.668;23.396;2022-09-09T09:24:07;8.45;;;5.57;;
8058;SDS011;4072;42.668;23.396;2022-09-09T09:26:39;8.90;;;5.22;;
8058;SDS011;4072;42.668;23.396;2022-09-09T09:29:10;8.32;;;5.82;;
8058;SDS011;4072;42.668;23.396;2022-09-09T09:31:38;6.65;;;5.72;;
8058;SDS011;4072;42.668;23.396;2022-09-09T09:34:07;8.45;;;5.32;;
8058;SDS011;4072;42.668;23.396;2022-09-09T09:36:38;7.32;;;5.40;;
8058;SDS011;4072;42.668;23.396;2022-09-09T09:39:09;10.95;;;5.90;;
8058;SDS011;4072;42.668;23.396;2022-09-09T09:41:57;6.65;;;5.57;;
8058;SDS011;4072;42.668;23.396;2022-09-09T09:44:35;6.78;;;5.43;;
8058;SDS011;4072;42.668;23.396;2022-09-09T09:47:07;6.07;;;5.25;;
8058;SDS011;4072;42.668;23.396;2022-09-09T09:49:35;10.38;;;5.82;;
8058;SDS011;4072;42.668;23.396;2022-09-09T09:52:03;7.47;;;5.75;;
8058;SDS011;4072;42.668;23.396;2022-09-09T09:54:37;7.28;;;5.40;;
8058;SDS011;4072;42.668;23.396;2022-09-09T09:57:09;9.38;;;6.22;;
8058;SDS011;4072;42.668;23.396;2022-09-09T09:59:39;6.82;;;5.40;;
8058;SDS011;4072;42.668;23.396;2022-09-09T10:02:13;5.85;;;5.35;;
8058;SDS011;4072;42.668;23.396;2022-09-09T10:04:41;9.77;;;5.43;;
8058;SDS011;4072;42.668;23.396;2022-09-09T10:07:12;10.82;;;5.22;;
8058;SDS011;4072;42.668;23.396;2022-09-09T10:09:40;5.93;;;5.22;;
8058;SDS011;4072;42.668;23.396;2022-09-09T10:12:11;6.07;;;5.50;;
8058;SDS011;4072;42.668;23.396;2022-09-09T10:14:45;9.85;;;5.50;;
8058;SDS011;4072;42.668;23.396;2022-09-09T10:17:17;10.43;;;5.65;;
8058;SDS011;4072;42.668;23.396;2022-09-09T10:19:52;6.28;;;5.63;;
8058;SDS011;4072;42.668;23.396;2022-09-09T10:22:26;6.30;;;5.70;;
8058;SDS011;4072;42.668;23.396;2022-09-09T10:25:01;6.30;;;5.10;;
8058;SDS011;4072;42.668;23.396;2022-09-09T10:27:36;5.40;;;4.93;;
8058;SDS011;4072;42.668;23.396;2022-09-09T10:30:12;7.65;;;5.30;;
8058;SDS011;4072;42.668;23.396;2022-09-09T10:32:45;7.00;;;6.05;;
8058;SDS011;4072;42.668;23.396;2022-09-09T10:35:17;7.43;;;5.18;;
8058;SDS011;4072;42.668;23.396;2022-09-09T10:40:42;6.03;;;5.30;;
8058;SDS011;4072;42.668;23.396;2022-09-09T10:43:15;12.27;;;6.15;;
8058;SDS011;4072;42.668;23.396;2022-09-09T10:45:52;6.75;;;5.20;;
8058;SDS011;4072;42.668;23.396;2022-09-09T10:48:30;6.53;;;5.80;;
8058;SDS011;4072;42.668;23.396;2022-09-09T10:53:45;8.70;;;6.30;;
8058;SDS011;4072;42.668;23.396;2022-09-09T10:56:16;7.75;;;6.80;;
8058;SDS011;4072;42.668;23.396;2022-09-09T10:58:46;5.78;;;5.28;;
8058;SDS011;4072;42.668;23.396;2022-09-09T11:01:18;6.30;;;5.80;;
8058;SDS011;4072;42.668;23.396;2022-09-09T11:03:49;6.75;;;5.85;;
8058;SDS011;4072;42.668;23.396;2022-09-09T11:06:20;5.75;;;5.25;;
8058;SDS011;4072;42.668;23.396;2022-09-09T11:08:51;8.57;;;6.20;;
8058;SDS011;4072;42.668;23.396;2022-09-09T11:11:25;6.75;;;5.75;;
8058;SDS011;4072;42.668;23.396;2022-09-09T11:13:55;7.00;;;5.97;;
8058;SDS011;4072;42.668;23.396;2022-09-09T11:16:27;6.22;;;5.53;;
8058;SDS011;4072;42.668;23.396;2022-09-09T11:18:58;7.88;;;6.00;;
8058;SDS011;4072;42.668;23.396;2022-09-09T11:21:29;7.07;;;5.43;;
8058;SDS011;4072;42.668;23.396;2022-09-09T11:23:59;13.40;;;6.57;;
8058;SDS011;4072;42.668;23.396;2022-09-09T11:26:31;8.48;;;6.47;;
8058;SDS011;4072;42.668;23.396;2022-09-09T11:29:08;8.93;;;6.30;;
8058;SDS011;4072;42.668;23.396;2022-09-09T11:31:45;7.40;;;6.40;;
8058;SDS011;4072;42.668;23.396;2022-09-09T11:34:18;9.38;;;6.90;;
8058;SDS011;4072;42.668;23.396;2022-09-09T11:36:51;8.43;;;6.57;;
8058;SDS011;4072;42.668;23.396;2022-09-09T11:39:29;11.15;;;8.13;;
8058;SDS011;4072;42.668;23.396;2022-09-09T11:42:07;10.02;;;7.22;;
8058;SDS011;4072;42.668;23.396;2022-09-09T11:44:35;7.82;;;7.05;;
8058;SDS011;4072;42.668;23.396;2022-09-09T11:47:17;8.27;;;7.43;;
8058;SDS011;4072;42.668;23.396;2022-09-09T11:49:46;11.50;;;7.65;;
8058;SDS011;4072;42.668;23.396;2022-09-09T11:52:20;11.27;;;7.68;;
8058;SDS011;4072;42.668;23.396;2022-09-09T11:54:49;7.75;;;6.90;;
8058;SDS011;4072;42.668;23.396;2022-09-09T11:57:22;11.25;;;7.57;;
8058;SDS011;4072;42.668;23.396;2022-09-09T11:59:52;7.57;;;6.57;;
8058;SDS011;4072;42.668;23.396;2022-09-09T12:02:23;11.40;;;7.07;;
8058;SDS011;4072;42.668;23.396;2022-09-09T12:04:56;9.27;;;8.35;;
8058;SDS011;4072;42.668;23.396;2022-09-09T12:07:26;9.65;;;7.05;;
8058;SDS011;4072;42.668;23.396;2022-09-09T12:09:57;9.60;;;7.43;;
8058;SDS011;4072;42.668;23.396;2022-09-09T12:12:29;9.68;;;7.63;;
8058;SDS011;4072;42.668;23.396;2022-09-09T12:15:02;12.27;;;7.15;;
8058;SDS011;4072;42.668;23.396;2022-09-09T12:17:36;10.98;;;8.07;;
8058;SDS011;4072;42.668;23.396;2022-09-09T12:20:11;10.13;;;7.63;;
8058;SDS011;4072;42.668;23.396;2022-09-09T12:22:44;12.13;;;7.43;;
8058;SDS011;4072;42.668;23.396;2022-09-09T12:25:16;12.13;;;7.50;;
8058;SDS011;4072;42.668;23.396;2022-09-09T12:27:51;16.30;;;8.45;;
8058;SDS011;4072;42.668;23.396;2022-09-09T12:30:24;15.93;;;8.60;;
8058;SDS011;4072;42.668;23.396;2022-09-09T12:33:02;13.02;;;10.15;;
8058;SDS011;4072;42.668;23.396;2022-09-09T12:35:29;13.15;;;8.05;;
8058;SDS011;4072;42.668;23.396;2022-09-09T12:37:58;9.57;;;8.07;;
8058;SDS011;4072;42.668;23.396;2022-09-09T12:40:30;11.15;;;7.57;;
8058;SDS011;4072;42.668;23.396;2022-09-09T12:43:01;12.10;;;7.70;;
8058;SDS011;4072;42.668;23.396;2022-09-09T12:45:32;10.88;;;7.78;;
8058;SDS011;4072;42.668;23.396;2022-09-09T12:48:04;10.68;;;8.52;;
8058;SDS011;4072;42.668;23.396;2022-09-09T12:50:34;9.18;;;8.23;;
8058;SDS011;4072;42.668;23.396;2022-09-09T12:53:06;14.73;;;8.52;;
8058;SDS011;4072;42.668;23.396;2022-09-09T12:55:36;23.83;;;11.90;;
8058;SDS011;4072;42.668;23.396;2022-09-09T12:58:05;12.85;;;10.10;;
8058;SDS011;4072;42.668;23.396;2022-09-09T13:00:34;9.05;;;7.53;;
8058;SDS011;4072;42.668;23.396;2022-09-09T13:03:15;13.35;;;8.75;;
8058;SDS011;4072;42.668;23.396;2022-09-09T13:05:43;11.07;;;7.78;;
8058;SDS011;4072;42.668;23.396;2022-09-09T13:08:13;11.90;;;7.45;;
8058;SDS011;4072;42.668;23.396;2022-09-09T13:10:44;10.05;;;7.40;;
8058;SDS011;4072;42.668;23.396;2022-09-09T13:13:23;13.45;;;7.85;;
8058;SDS011;4072;42.668;23.396;2022-09-09T13:15:52;8.98;;;7.95;;
8058;SDS011;4072;42.668;23.396;2022-09-09T13:18:23;13.07;;;7.88;;
8058;SDS011;4072;42.668;23.396;2022-09-09T13:20:51;11.65;;;7.95;;
8058;SDS011;4072;42.668;23.396;2022-09-09T13:23:20;10.20;;;7.90;;
8058;SDS011;4072;42.668;23.396;2022-09-09T13:25:54;11.88;;;8.93;;
8058;SDS011;4072;42.668;23.396;2022-09-09T13:28:23;13.32;;;7.60;;
8058;SDS011;4072;42.668;23.396;2022-09-09T13:30:59;9.90;;;7.75;;
8058;SDS011;4072;42.668;23.396;2022-09-09T13:33:31;8.18;;;6.68;;
8058;SDS011;4072;42.668;23.396;2022-09-09T13:36:01;9.70;;;8.55;;
8058;SDS011;4072;42.668;23.396;2022-09-09T13:38:33;10.65;;;7.88;;
8058;SDS011;4072;42.668;23.396;2022-09-09T13:41:02;11.30;;;8.30;;
8058;SDS011;4072;42.668;23.396;2022-09-09T13:43:31;11.38;;;8.68;;
8058;SDS011;4072;42.668;23.396;2022-09-09T13:46:02;9.57;;;7.63;;
8058;SDS011;4072;42.668;23.396;2022-09-09T13:48:32;14.18;;;7.70;;
8058;SDS011;4072;42.668;23.396;2022-09-09T13:51:01;13.23;;;8.63;;
8058;SDS011;4072;42.668;23.396;2022-09-09T13:53:30;11.02;;;8.32;;
8058;SDS011;4072;42.668;23.396;2022-09-09T13:55:59;13.07;;;8.57;;
8058;SDS011;4072;42.668;23.396;2022-09-09T13:58:27;11.63;;;8.77;;
8058;SDS011;4072;42.668;23.396;2022-09-09T14:00:55;8.68;;;7.78;;
8058;SDS011;4072;42.668;23.396;2022-09-09T14:03:24;8.20;;;7.40;;
8058;SDS011;4072;42.668;23.396;2022-09-09T14:05:53;18.25;;;8.60;;
8058;SDS011;4072;42.668;23.396;2022-09-09T14:08:23;10.35;;;7.75;;
8058;SDS011;4072;42.668;23.396;2022-09-09T14:10:51;12.52;;;9.00;;
8058;SDS011;4072;42.668;23.396;2022-09-09T14:13:19;14.75;;;8.63;;
8058;SDS011;4072;42.668;23.396;2022-09-09T14:15:48;10.90;;;7.85;;
8058;SDS011;4072;42.668;23.396;2022-09-09T14:18:17;8.82;;;7.75;;
8058;SDS011;4072;42.668;23.396;2022-09-09T14:20:45;12.18;;;7.85;;
8058;SDS011;4072;42.668;23.396;2022-09-09T14:23:14;14.15;;;7.95;;
8058;SDS011;4072;42.668;23.396;2022-09-09T14:25:42;13.85;;;8.45;;
8058;SDS011;4072;42.668;23.396;2022-09-09T14:28:11;9.43;;;7.88;;
8058;SDS011;4072;42.668;23.396;2022-09-09T14:30:39;11.10;;;7.88;;
8058;SDS011;4072;42.668;23.396;2022-09-09T14:33:08;12.13;;;7.68;;
8058;SDS011;4072;42.668;23.396;2022-09-09T14:35:37;14.52;;;7.70;;
8058;SDS011;4072;42.668;23.396;2022-09-09T14:38:07;10.35;;;7.53;;
8058;SDS011;4072;42.668;23.396;2022-09-09T14:40:36;10.82;;;6.90;;
8058;SDS011;4072;42.668;23.396;2022-09-09T14:43:10;11.60;;;7.93;;
8058;SDS011;4072;42.668;23.396;2022-09-09T14:45:38;11.52;;;8.30;;
8058;SDS011;4072;42.668;23.396;2022-09-09T14:48:09;10.60;;;8.38;;
8058;SDS011;4072;42.668;23.396;2022-09-09T14:50:37;11.00;;;8.65;;
8058;SDS011;4072;42.668;23.396;2022-09-09T14:53:07;9.73;;;7.28;;
8058;SDS011;4072;42.668;23.396;2022-09-09T14:55:37;10.43;;;7.13;;
8058;SDS011;4072;42.668;23.396;2022-09-09T14:58:05;9.82;;;7.18;;
8058;SDS011;4072;42.668;23.396;2022-09-09T15:00:33;7.18;;;6.47;;
8058;SDS011;4072;42.668;23.396;2022-09-09T15:03:02;13.15;;;7.25;;
8058;SDS011;4072;42.668;23.396;2022-09-09T15:05:30;8.25;;;6.60;;
8058;SDS011;4072;42.668;23.396;2022-09-09T15:07:58;9.35;;;7.03;;
8058;SDS011;4072;42.668;23.396;2022-09-09T15:10:26;9.77;;;7.05;;
8058;SDS011;4072;42.668;23.396;2022-09-09T15:12:55;8.98;;;7.05;;
8058;SDS011;4072;42.668;23.396;2022-09-09T15:15:23;11.05;;;8.57;;
8058;SDS011;4072;42.668;23.396;2022-09-09T15:17:52;9.60;;;8.02;;
8058;SDS011;4072;42.668;23.396;2022-09-09T15:20:21;15.52;;;8.10;;
8058;SDS011;4072;42.668;23.396;2022-09-09T15:22:50;8.27;;;7.43;;
8058;SDS011;4072;42.668;23.396;2022-09-09T15:25:19;13.23;;;7.60;;
8058;SDS011;4072;42.668;23.396;2022-09-09T15:27:48;8.93;;;7.47;;
8058;SDS011;4072;42.668;23.396;2022-09-09T15:30:18;11.77;;;7.82;;